createdAt,value
2018-05-09T00:00:21.817Z,87.74
2018-05-09T00:02:49.423Z,87.81
2018-05-09T00:05:16.979Z,88.01
2018-05-09T00:07:44.613Z,88.29
2018-05-09T00:10:12.184Z,88.25
2018-05-09T00:12:39.800Z,88.64
2018-05-09T00:15:07.416Z,88.87
2018-05-09T00:17:35.000Z,88.71
2018-05-09T00:20:02.613Z,88.72
2018-05-09T00:22:30.555Z,89.07
2018-05-09T00:24:58.385Z,88.76
2018-05-09T00:27:26.104Z,88.79
2018-05-09T00:29:53.677Z,89.21
2018-05-09T00:32:21.269Z,89.05
2018-05-09T00:34:49.058Z,89.07
2018-05-09T00:37:16.643Z,88.72
2018-05-09T00:39:44.379Z,88.95
2018-05-09T00:42:12.048Z,89.31
2018-05-09T00:44:40.150Z,89.64
2018-05-09T00:47:07.997Z,89.65
2018-05-09T00:49:35.597Z,89.52
2018-05-09T00:52:03.190Z,90.11
2018-05-09T00:54:33.968Z,90.18
2018-05-09T00:57:01.612Z,90.42
2018-05-09T00:59:29.452Z,91.22
2018-05-09T01:01:57.036Z,91.17
2018-05-09T01:04:24.644Z,91.17
2018-05-09T01:06:52.320Z,91.00
2018-05-09T01:09:19.962Z,90.68
2018-05-09T01:11:47.604Z,90.42
2018-05-09T01:14:15.164Z,90.51
2018-05-09T01:16:42.746Z,90.93
2018-05-09T01:19:10.324Z,91.29
2018-05-09T01:21:37.916Z,91.13
2018-05-09T01:24:05.528Z,90.96
2018-05-09T01:26:33.140Z,90.86
2018-05-09T01:29:00.684Z,90.71
2018-05-09T01:31:28.484Z,90.51
2018-05-09T01:33:56.303Z,90.13
2018-05-09T01:36:24.121Z,89.85
2018-05-09T01:38:51.840Z,90.19
2018-05-09T01:41:19.508Z,90.52
2018-05-09T01:43:47.080Z,90.81
2018-05-09T01:46:14.680Z,91.27
2018-05-09T01:48:43.218Z,91.45
2018-05-09T01:51:11.036Z,91.54
2018-05-09T01:53:38.673Z,91.71
2018-05-09T01:56:06.473Z,91.53
2018-05-09T01:58:35.010Z,91.17
2018-05-09T02:01:02.847Z,91.10
2018-05-09T02:03:30.413Z,90.64
2018-05-09T02:05:57.989Z,90.84
2018-05-09T02:08:25.763Z,91.11
2018-05-09T02:10:53.482Z,91.05
2018-05-09T02:13:21.078Z,90.97
2018-05-09T02:15:48.919Z,90.74
2018-05-09T02:18:16.501Z,90.51
2018-05-09T02:20:44.255Z,90.46
2018-05-09T02:23:11.834Z,89.93
2018-05-09T02:25:39.591Z,89.92
2018-05-09T02:28:07.325Z,89.54
2018-05-09T02:30:35.133Z,90.11
2018-05-09T02:33:02.928Z,89.92
2018-05-09T02:35:30.540Z,90.17
2018-05-09T02:37:58.154Z,90.36
2018-05-09T02:40:25.728Z,90.47
2018-05-09T02:42:53.520Z,90.71
2018-05-09T02:45:21.276Z,90.94
2018-05-09T02:47:49.121Z,91.04
2018-05-09T02:50:16.768Z,90.89
2018-05-09T02:52:44.409Z,90.86
2018-05-09T02:55:12.108Z,90.76
2018-05-09T02:57:39.685Z,91.20
2018-05-09T03:00:07.253Z,91.55
2018-05-09T03:02:35.068Z,91.51
2018-05-09T03:05:02.701Z,91.13
2018-05-09T03:07:30.336Z,91.26
2018-05-09T03:09:58.313Z,91.23
2018-05-09T03:12:25.909Z,91.66
2018-05-09T03:14:53.638Z,92.03
2018-05-09T03:17:21.260Z,91.51
2018-05-09T03:19:48.836Z,91.46
2018-05-09T03:22:16.502Z,90.95
2018-05-09T03:24:44.331Z,90.35
2018-05-09T03:27:11.897Z,89.94
2018-05-09T03:29:39.777Z,88.86
2018-05-09T03:32:07.583Z,88.76
2018-05-09T03:34:35.199Z,89.07
2018-05-09T03:37:02.793Z,88.97
2018-05-09T03:39:30.353Z,88.28
2018-05-09T03:41:57.976Z,87.73
2018-05-09T03:44:25.778Z,87.90
2018-05-09T03:46:53.597Z,88.52
2018-05-09T03:49:21.412Z,88.64
2018-05-09T03:51:48.998Z,88.38
2018-05-09T03:54:16.643Z,88.67
2018-05-09T03:56:44.224Z,88.27
2018-05-09T03:59:11.868Z,87.88
2018-05-09T04:01:51.124Z,87.73
2018-05-09T04:04:30.619Z,87.50
2018-05-09T04:10:02.769Z,86.68
2018-05-09T04:12:30.471Z,85.39
2018-05-09T04:14:58.244Z,84.80
2018-05-09T04:17:25.804Z,85.18
2018-05-09T04:19:53.726Z,85.65
2018-05-09T04:22:21.296Z,85.52
2018-05-09T04:24:49.198Z,86.08
2018-05-09T04:27:16.997Z,85.54
2018-05-09T04:29:44.817Z,85.15
2018-05-09T04:32:12.445Z,84.52
2018-05-09T04:34:40.024Z,84.33
2018-05-09T04:37:07.589Z,83.26
2018-05-09T04:39:35.179Z,83.65
2018-05-09T04:42:02.911Z,82.78
2018-05-09T04:44:30.457Z,81.40
2018-05-09T04:46:58.099Z,80.78
2018-05-09T04:49:25.725Z,80.56
2018-05-09T04:51:53.301Z,80.41
2018-05-09T04:54:20.877Z,79.42
2018-05-09T04:56:48.516Z,78.12
2018-05-09T04:59:16.121Z,78.74
2018-05-09T05:01:44.016Z,78.36
2018-05-09T05:04:11.591Z,78.35
2018-05-09T05:06:39.228Z,78.90
2018-05-09T05:09:07.003Z,78.25
2018-05-09T05:11:34.576Z,77.30
2018-05-09T05:14:02.438Z,76.76
2018-05-09T05:16:30.258Z,76.84
2018-05-09T05:18:57.866Z,77.01
2018-05-09T05:21:25.598Z,77.68
2018-05-09T05:23:53.221Z,78.62
2018-05-09T05:26:20.786Z,79.09
2018-05-09T05:28:48.346Z,79.20
2018-05-09T05:31:15.909Z,77.66
2018-05-09T05:33:43.684Z,77.86
2018-05-09T05:36:11.260Z,77.31
2018-05-09T05:38:38.832Z,78.11
2018-05-09T05:41:06.454Z,77.62
2018-05-09T05:43:34.041Z,77.52
2018-05-09T05:46:01.774Z,78.44
2018-05-09T05:48:29.593Z,77.82
2018-05-09T05:50:57.413Z,77.70
2018-05-09T05:53:24.984Z,77.57
2018-05-09T05:55:52.749Z,77.34
2018-05-09T05:58:20.390Z,76.61
2018-05-09T06:00:48.184Z,76.23
2018-05-09T06:03:15.902Z,73.50
2018-05-09T06:05:43.508Z,72.70
2018-05-09T06:08:11.080Z,72.81
2018-05-09T06:10:38.961Z,73.11
2018-05-09T06:13:06.552Z,72.94
2018-05-09T06:15:34.294Z,73.70
2018-05-09T06:18:01.893Z,73.42
2018-05-09T06:20:29.593Z,72.92
2018-05-09T06:22:57.216Z,72.51
2018-05-09T06:25:24.840Z,71.07
2018-05-09T06:27:52.686Z,70.23
2018-05-09T06:30:20.322Z,69.01
2018-05-09T06:32:47.975Z,67.72
2018-05-09T06:35:15.891Z,67.78
2018-05-09T06:37:43.748Z,67.08
2018-05-09T06:40:11.343Z,66.46
2018-05-09T06:42:38.941Z,65.16
2018-05-09T06:45:06.607Z,65.09
2018-05-09T06:47:34.256Z,62.40
2018-05-09T06:50:01.883Z,60.66
2018-05-09T06:52:30.369Z,59.87
2018-05-09T06:54:58.009Z,59.50
2018-05-09T06:57:25.806Z,58.80
2018-05-09T06:59:53.930Z,60.20
2018-05-09T07:02:21.573Z,59.14
2018-05-09T07:04:49.141Z,59.42
2018-05-09T07:07:16.717Z,58.54
2018-05-09T07:09:44.382Z,58.62
2018-05-09T07:12:11.956Z,57.71
2018-05-09T07:14:39.709Z,58.61
2018-05-09T07:17:07.289Z,58.34
2018-05-09T07:19:35.079Z,56.45
2018-05-09T07:22:02.860Z,54.39
2018-05-09T07:24:30.450Z,53.46
2018-05-09T07:26:58.194Z,54.07
2018-05-09T07:29:25.737Z,53.79
2018-05-09T07:31:53.562Z,53.73
2018-05-09T07:34:21.128Z,55.46
2018-05-09T07:36:48.861Z,53.68
2018-05-09T07:39:16.439Z,54.04
2018-05-09T07:41:44.383Z,54.51
2018-05-09T07:44:12.045Z,51.79
2018-05-09T07:46:39.649Z,51.72
2018-05-09T07:49:07.366Z,48.80
2018-05-09T07:51:34.981Z,49.43
2018-05-09T07:54:02.585Z,49.90
2018-05-09T07:56:30.185Z,50.44
2018-05-09T07:58:57.760Z,51.59
2018-05-09T08:01:25.460Z,52.31
2018-05-09T08:03:53.038Z,50.15
2018-05-09T08:06:20.617Z,50.46
2018-05-09T08:08:48.233Z,51.38
2018-05-09T08:11:15.829Z,51.02
2018-05-09T08:13:43.413Z,51.28
2018-05-09T08:16:10.984Z,51.38
2018-05-09T08:18:38.565Z,51.66
2018-05-09T08:21:06.339Z,50.18
2018-05-09T08:23:33.934Z,50.30
2018-05-09T08:26:02.551Z,51.06
2018-05-09T08:28:30.509Z,50.80
2018-05-09T08:30:58.132Z,51.44
2018-05-09T08:33:25.918Z,50.00
2018-05-09T08:35:53.499Z,50.12
2018-05-09T08:38:21.067Z,50.93
2018-05-09T08:40:48.768Z,48.99
2018-05-09T08:43:16.543Z,49.81
2018-05-09T08:45:44.209Z,50.30
2018-05-09T08:48:11.761Z,50.65
2018-05-09T08:50:39.425Z,50.30
2018-05-09T08:53:07.136Z,49.46
2018-05-09T08:55:34.805Z,50.78
2018-05-09T08:58:02.608Z,49.51
2018-05-09T09:00:30.418Z,48.54
2018-05-09T09:02:57.985Z,50.74
2018-05-09T09:05:25.755Z,50.71
2018-05-09T09:07:53.344Z,49.10
2018-05-09T09:10:20.929Z,49.93
2018-05-09T09:12:48.512Z,48.29
2018-05-09T09:15:16.179Z,50.65
2018-05-09T09:17:43.947Z,49.10
2018-05-09T09:20:11.518Z,48.04
2018-05-09T09:22:39.105Z,47.72
2018-05-09T09:25:06.667Z,47.29
2018-05-09T09:27:34.231Z,48.83
2018-05-09T09:30:01.821Z,49.88
2018-05-09T09:32:29.572Z,50.47
2018-05-09T09:34:57.256Z,50.66
2018-05-09T09:37:25.090Z,50.65
2018-05-09T09:39:52.662Z,52.35
2018-05-09T09:42:20.527Z,52.39
2018-05-09T09:44:48.364Z,53.27
2018-05-09T09:47:16.163Z,53.84
2018-05-09T09:49:43.728Z,53.35
2018-05-09T09:52:11.476Z,53.44
2018-05-09T09:54:39.053Z,53.94
2018-05-09T09:57:06.835Z,54.16
2018-05-09T09:59:34.386Z,54.88
2018-05-09T10:02:01.948Z,53.95
2018-05-09T10:04:29.690Z,54.55
2018-05-09T10:06:57.322Z,54.78
2018-05-09T10:09:24.940Z,54.48
2018-05-09T10:11:52.528Z,54.41
2018-05-09T10:14:20.363Z,54.21
2018-05-09T10:16:47.960Z,53.43
2018-05-09T10:19:15.548Z,54.17
2018-05-09T10:21:43.316Z,53.81
2018-05-09T10:24:11.349Z,51.72
2018-05-09T10:26:38.964Z,50.64
2018-05-09T10:29:06.540Z,50.16
2018-05-09T10:31:34.176Z,50.15
2018-05-09T10:34:01.760Z,50.08
2018-05-09T10:36:29.371Z,49.16
2018-05-09T10:38:57.120Z,48.20
2018-05-09T10:41:24.723Z,47.65
2018-05-09T10:43:52.359Z,47.39
2018-05-09T10:46:20.011Z,48.54
2018-05-09T10:48:47.629Z,49.26
2018-05-09T10:51:15.221Z,48.46
2018-05-09T10:53:43.055Z,47.73
2018-05-09T10:56:10.630Z,45.80
2018-05-09T10:58:38.193Z,43.59
2018-05-09T11:01:05.804Z,44.28
2018-05-09T11:03:33.374Z,42.48
2018-05-09T11:06:00.940Z,43.82
2018-05-09T11:08:28.592Z,44.91
2018-05-09T11:10:56.167Z,46.34
2018-05-09T11:13:23.743Z,47.51
2018-05-09T11:15:51.429Z,44.67
2018-05-09T11:18:19.231Z,43.74
2018-05-09T11:20:46.805Z,42.86
2018-05-09T11:23:14.372Z,41.83
2018-05-09T11:25:41.980Z,39.61
2018-05-09T11:28:09.677Z,42.97
2018-05-09T11:30:37.257Z,41.76
2018-05-09T11:33:05.039Z,41.74
2018-05-09T11:35:32.858Z,41.95
2018-05-09T11:38:00.515Z,40.88
2018-05-09T11:40:28.093Z,40.84
2018-05-09T11:42:55.722Z,42.30
2018-05-09T11:45:23.544Z,41.04
2018-05-09T11:47:51.121Z,42.27
2018-05-09T11:50:18.724Z,40.31
2018-05-09T11:52:46.318Z,41.03
2018-05-09T11:55:14.065Z,40.59
2018-05-09T11:57:41.822Z,42.14
2018-05-09T12:00:09.466Z,41.81
2018-05-09T12:02:37.132Z,42.67
2018-05-09T12:05:04.658Z,42.33
2018-05-09T12:07:32.242Z,41.49
2018-05-09T12:09:59.993Z,40.74
2018-05-09T12:12:27.709Z,39.96
2018-05-09T12:14:55.360Z,39.25
2018-05-09T12:17:23.045Z,40.27
2018-05-09T12:19:50.604Z,40.16
2018-05-09T12:22:18.196Z,40.79
2018-05-09T12:24:45.782Z,40.98
2018-05-09T12:27:13.513Z,40.06
2018-05-09T12:29:41.094Z,39.76
2018-05-09T12:32:08.877Z,41.79
2018-05-09T12:34:36.695Z,41.47
2018-05-09T12:37:04.271Z,42.11
2018-05-09T12:39:31.836Z,42.40
2018-05-09T12:41:59.648Z,43.38
2018-05-09T12:44:27.467Z,41.41
2018-05-09T12:46:55.040Z,42.41
2018-05-09T12:49:22.639Z,41.93
2018-05-09T12:51:50.521Z,40.88
2018-05-09T12:54:18.080Z,43.09
2018-05-09T12:56:45.668Z,42.82
2018-05-09T12:59:13.475Z,41.18
2018-05-09T13:01:41.064Z,43.17
2018-05-09T13:04:08.644Z,41.77
2018-05-09T13:06:36.409Z,42.07
2018-05-09T13:09:04.140Z,42.28
2018-05-09T13:11:31.865Z,42.70
2018-05-09T13:13:59.684Z,42.12
2018-05-09T13:16:27.276Z,43.44
2018-05-09T13:18:54.836Z,43.25
2018-05-09T13:21:22.641Z,43.50
2018-05-09T13:23:50.220Z,43.24
2018-05-09T13:26:17.840Z,44.50
2018-05-09T13:28:45.472Z,44.35
2018-05-09T13:31:13.211Z,44.72
2018-05-09T13:33:41.029Z,44.48
2018-05-09T13:36:08.848Z,45.18
2018-05-09T13:38:36.767Z,45.42
2018-05-09T13:41:04.586Z,45.92
2018-05-09T13:43:32.221Z,45.93
2018-05-09T13:45:59.825Z,46.46
2018-05-09T13:48:27.428Z,46.45
2018-05-09T13:50:54.988Z,47.66
2018-05-09T13:53:22.547Z,47.96
2018-05-09T13:55:50.126Z,48.58
2018-05-09T13:58:17.897Z,48.86
2018-05-09T14:00:45.733Z,50.91
2018-05-09T14:03:13.549Z,51.03
2018-05-09T14:05:41.120Z,52.40
2018-05-09T14:08:08.701Z,53.39
2018-05-09T14:10:36.279Z,54.74
2018-05-09T14:13:03.852Z,55.32
2018-05-09T14:15:31.487Z,56.05
2018-05-09T14:17:59.258Z,56.02
2018-05-09T14:20:26.812Z,55.99
2018-05-09T14:22:54.380Z,55.82
2018-05-09T14:25:21.960Z,55.83
2018-05-09T14:27:49.520Z,55.88
2018-05-09T14:30:17.135Z,55.21
2018-05-09T14:32:44.706Z,56.28
2018-05-09T14:35:12.584Z,55.40
2018-05-09T14:37:40.203Z,56.20
2018-05-09T14:40:07.812Z,56.18
2018-05-09T14:42:35.549Z,55.79
2018-05-09T14:45:03.355Z,56.02
2018-05-09T14:47:31.174Z,55.71
2018-05-09T14:49:58.992Z,56.27
2018-05-09T14:52:26.794Z,56.21
2018-05-09T14:54:54.364Z,56.37
2018-05-09T14:57:21.952Z,56.25
2018-05-09T14:59:49.765Z,56.18
2018-05-09T15:02:17.497Z,56.79
2018-05-09T15:04:45.080Z,57.59
2018-05-09T15:07:12.662Z,59.08
2018-05-09T15:09:40.309Z,59.87
2018-05-09T15:12:07.901Z,59.85
2018-05-09T15:14:35.475Z,60.39
2018-05-09T15:17:03.292Z,60.69
2018-05-09T15:19:30.895Z,61.21
2018-05-09T15:21:58.464Z,61.63
2018-05-09T15:24:26.030Z,61.58
2018-05-09T15:26:53.870Z,62.08
2018-05-09T15:29:21.432Z,62.19
2018-05-09T15:31:49.203Z,62.29
2018-05-09T15:34:16.779Z,60.23
2018-05-09T15:36:44.345Z,60.11
2018-05-09T15:39:11.933Z,60.36
2018-05-09T15:41:39.520Z,60.22
2018-05-09T15:44:07.163Z,60.89
2018-05-09T15:46:35.690Z,61.21
2018-05-09T15:49:03.260Z,60.89
2018-05-09T15:51:30.834Z,60.26
2018-05-09T15:53:58.397Z,59.97
2018-05-09T15:56:26.151Z,60.13
2018-05-09T15:58:53.719Z,59.89
2018-05-09T16:01:21.352Z,60.75
2018-05-09T16:03:49.138Z,59.15
2018-05-09T16:06:16.957Z,60.46
2018-05-09T16:08:44.576Z,60.00
2018-05-09T16:11:12.392Z,60.18
2018-05-09T16:13:39.957Z,60.48
2018-05-09T16:16:07.731Z,60.31
2018-05-09T16:18:35.443Z,59.98
2018-05-09T16:21:03.045Z,59.62
2018-05-09T16:23:30.887Z,59.70
2018-05-09T16:25:59.856Z,60.42
2018-05-09T16:28:27.598Z,60.33
2018-05-09T16:30:55.361Z,61.27
2018-05-09T16:33:23.121Z,62.16
2018-05-09T16:35:50.987Z,61.81
2018-05-09T16:38:18.799Z,62.39
2018-05-09T16:40:46.368Z,62.85
2018-05-09T16:43:13.973Z,62.86
2018-05-09T16:45:41.545Z,63.31
2018-05-09T16:48:09.144Z,63.57
2018-05-09T16:50:36.729Z,63.65
2018-05-09T16:53:04.861Z,63.01
2018-05-09T16:55:32.627Z,63.37
2018-05-09T16:58:00.236Z,63.41
2018-05-09T17:00:27.854Z,63.55
2018-05-09T17:02:55.637Z,63.83
2018-05-09T17:05:23.399Z,64.42
2018-05-09T17:07:51.009Z,65.18
2018-05-09T17:10:18.576Z,66.17
2018-05-09T17:12:46.149Z,66.89
2018-05-09T17:15:13.748Z,67.45
2018-05-09T17:17:41.336Z,68.01
2018-05-09T17:20:09.028Z,68.67
2018-05-09T17:22:36.672Z,69.03
2018-05-09T17:25:04.280Z,69.24
2018-05-09T17:27:31.868Z,70.18
2018-05-09T17:29:59.460Z,70.77
2018-05-09T17:32:27.258Z,71.03
2018-05-09T17:34:55.000Z,70.96
2018-05-09T17:37:22.844Z,71.59
2018-05-09T17:39:50.531Z,71.62
2018-05-09T17:42:18.165Z,71.85
2018-05-09T17:44:46.106Z,72.16
2018-05-09T17:47:13.727Z,72.26
2018-05-09T17:49:41.341Z,72.34
2018-05-09T17:52:10.149Z,72.27
2018-05-09T17:54:37.717Z,72.57
2018-05-09T17:57:05.277Z,72.79
2018-05-09T17:59:32.901Z,72.91
2018-05-09T18:02:00.721Z,73.27
2018-05-09T18:04:28.539Z,73.78
2018-05-09T18:06:56.359Z,74.04
2018-05-09T18:09:24.178Z,74.16
2018-05-09T18:11:51.774Z,74.61
2018-05-09T18:14:19.345Z,74.54
2018-05-09T18:16:46.972Z,74.87
2018-05-09T18:19:14.751Z,75.32
2018-05-09T18:21:42.337Z,75.64
2018-05-09T18:24:10.067Z,75.41
2018-05-09T18:26:37.649Z,75.30
2018-05-09T18:29:05.233Z,75.21
2018-05-09T18:31:32.798Z,75.60
2018-05-09T18:34:00.629Z,75.76
2018-05-09T18:36:28.346Z,75.92
2018-05-09T18:38:55.908Z,76.13
2018-05-09T18:41:23.728Z,75.82
2018-05-09T18:43:51.623Z,75.67
2018-05-09T18:46:19.234Z,75.78
2018-05-09T18:48:46.966Z,75.44
2018-05-09T18:51:14.695Z,75.44
2018-05-09T18:53:42.959Z,75.36
2018-05-09T18:56:10.581Z,75.97
2018-05-09T18:58:38.168Z,75.92
2018-05-09T19:01:05.757Z,76.05
2018-05-09T19:03:33.357Z,76.08
2018-05-09T19:06:01.072Z,76.29
2018-05-09T19:08:28.915Z,76.78
2018-05-09T19:10:56.490Z,76.92
2018-05-09T19:13:24.251Z,76.96
2018-05-09T19:15:51.821Z,77.35
2018-05-09T19:18:19.385Z,77.63
2018-05-09T19:20:46.962Z,78.10
2018-05-09T19:23:14.733Z,78.30
2018-05-09T19:25:42.307Z,78.63
2018-05-09T19:28:09.887Z,78.43
2018-05-09T19:30:37.681Z,78.52
2018-05-09T19:33:05.458Z,78.42
2018-05-09T19:35:33.174Z,79.20
2018-05-09T19:38:00.769Z,78.82
2018-05-09T19:40:28.339Z,78.65
2018-05-09T19:42:55.969Z,78.63
2018-05-09T19:45:23.544Z,78.59
2018-05-09T19:47:51.151Z,78.31
2018-05-09T19:50:18.946Z,78.48
2018-05-09T19:52:46.739Z,78.74
2018-05-09T19:55:14.339Z,78.94
2018-05-09T19:57:42.075Z,79.19
2018-05-09T20:00:09.785Z,79.37
2018-05-09T20:02:37.433Z,79.37
2018-05-09T20:05:05.235Z,80.14
2018-05-09T20:07:33.017Z,80.32
2018-05-09T20:10:00.620Z,80.39
2018-05-09T20:12:28.204Z,80.80
2018-05-09T20:14:55.773Z,81.59
2018-05-09T20:17:23.436Z,82.06
2018-05-09T20:19:50.996Z,82.04
2018-05-09T20:22:18.718Z,82.06
2018-05-09T20:24:46.396Z,82.19
2018-05-09T20:27:13.978Z,82.10
2018-05-09T20:29:41.570Z,82.46
2018-05-09T20:32:21.071Z,81.97
2018-05-09T20:34:48.686Z,82.24
2018-05-09T20:37:16.249Z,82.15
2018-05-09T20:39:43.903Z,82.46
2018-05-09T20:42:11.602Z,82.54
2018-05-09T20:44:39.165Z,82.54
2018-05-09T20:47:06.755Z,82.26
2018-05-09T20:49:34.385Z,82.08
2018-05-09T20:52:02.217Z,82.39
2018-05-09T20:54:29.814Z,82.44
2018-05-09T20:56:57.441Z,82.45
2018-05-09T20:59:25.088Z,82.21
2018-05-09T21:01:52.864Z,82.26
2018-05-09T21:04:20.496Z,82.48
2018-05-09T21:06:48.325Z,82.54
2018-05-09T21:09:16.248Z,82.67
2018-05-09T21:14:49.814Z,83.15
2018-05-09T21:17:17.533Z,83.46
2018-05-09T21:19:45.149Z,83.53
2018-05-09T21:22:12.808Z,83.52
2018-05-09T21:24:40.391Z,83.40
2018-05-09T21:27:08.234Z,83.66
2018-05-09T21:29:36.024Z,83.77
2018-05-09T21:32:03.841Z,83.67
2018-05-09T21:34:31.566Z,83.70
2018-05-09T21:36:59.206Z,83.40
2018-05-09T21:39:26.998Z,83.53
2018-05-09T21:41:54.565Z,83.70
2018-05-09T21:44:22.334Z,83.92
2018-05-09T21:46:49.921Z,84.12
2018-05-09T21:49:17.488Z,84.25
2018-05-09T21:51:45.056Z,84.40
2018-05-09T21:54:12.894Z,84.55
2018-05-09T21:56:40.463Z,84.52
2018-05-09T21:59:08.040Z,84.49
2018-05-09T22:01:35.860Z,84.57
2018-05-09T22:04:03.478Z,84.54
2018-05-09T22:06:31.082Z,84.84
2018-05-09T22:08:58.653Z,84.59
2018-05-09T22:11:26.812Z,84.33
2018-05-09T22:13:54.559Z,84.52
2018-05-09T22:16:22.133Z,84.43
2018-05-09T22:18:49.755Z,84.75
2018-05-09T22:21:17.328Z,84.54
2018-05-09T22:23:44.952Z,84.45
2018-05-09T22:26:12.518Z,83.91
2018-05-09T22:28:40.145Z,83.80
2018-05-09T22:31:07.838Z,83.74
2018-05-09T22:33:35.562Z,83.86
2018-05-09T22:36:03.214Z,84.23
2018-05-09T22:38:31.037Z,84.03
2018-05-09T22:40:58.609Z,84.52
2018-05-09T22:43:26.369Z,84.58
2018-05-09T22:45:54.192Z,84.49
2018-05-09T22:48:21.753Z,84.65
2018-05-09T22:50:49.405Z,84.37
2018-05-09T22:53:17.221Z,84.12
2018-05-09T22:55:44.938Z,84.19
2018-05-09T22:58:12.529Z,84.24
2018-05-09T23:00:40.175Z,84.30
2018-05-09T23:03:07.909Z,84.36
2018-05-09T23:05:35.576Z,84.37
2018-05-09T23:08:03.166Z,84.54
2018-05-09T23:10:30.729Z,84.54
2018-05-09T23:12:58.485Z,84.77
2018-05-09T23:15:26.309Z,84.74
2018-05-09T23:17:54.027Z,84.67
2018-05-09T23:20:21.859Z,84.36
2018-05-09T23:22:49.660Z,84.62
2018-05-09T23:25:17.367Z,84.61
2018-05-09T23:27:44.929Z,84.53
2018-05-09T23:30:12.714Z,84.47
2018-05-09T23:32:40.340Z,84.64
2018-05-09T23:35:07.916Z,84.52
2018-05-09T23:37:35.545Z,84.33
2018-05-09T23:40:03.176Z,84.25
2018-05-09T23:42:30.759Z,84.28
2018-05-09T23:44:58.365Z,84.76
2018-05-09T23:47:25.937Z,85.01
2018-05-09T23:49:53.758Z,85.26
2018-05-09T23:52:21.343Z,85.57
2018-05-09T23:54:48.922Z,85.33
2018-05-09T23:57:16.713Z,85.55
2018-05-09T23:59:44.536Z,85.94
